Time;durP1;ratioP1;P1;durP2;ratioP2;P2;SDS_P1;SDS_P2;PMS_P1;PMS_P2;Temp;Humidity;BMP_temperature;BMP_pressure;BME280_temperature;BME280_humidity;BME280_pressure;Samples;Min_cycle;Max_cycle;Signal;HPM_P1;HPM_P2
2022/01/22 01:57:38;;;;;;;9.90;4.90;;;;;;;-1.54;100.00;101368.75;5714311;23;20047;-71
2022/01/22 02:00:26;;;;;;;8.02;4.82;;;;;;;-1.15;100.00;101377.19;4954896;29;20354;-71
2022/01/22 02:03:13;;;;;;;9.13;5.18;;;;;;;-1.28;100.00;101369.81;4942446;29;20027;-72
2022/01/22 02:28:55;;;;;;;10.82;4.88;;;;;;;-1.26;100.00;101363.00;5594289;23;20078;-71
2022/01/22 02:31:51;;;;;;;7.47;5.05;;;;;;;-1.59;100.00;101356.53;4941584;29;20113;-71
2022/01/22 02:34:53;;;;;;;9.80;5.30;;;;;;;-1.73;100.00;101355.09;4955867;29;20054;-72
2022/01/22 02:37:46;;;;;;;10.77;5.60;;;;;;;-1.60;100.00;101355.63;4954282;29;20110;-71
2022/01/22 02:40:50;;;;;;;10.32;5.32;;;;;;;-1.56;100.00;101359.22;4942380;29;20051;-72
2022/01/22 02:56:12;;;;;;;10.73;5.47;;;;;;;-1.22;100.00;101367.47;5404989;23;20063;-73
2022/01/22 02:58:59;;;;;;;9.45;5.68;;;;;;;-1.55;100.00;101363.53;4958546;29;20027;-71
2022/01/22 03:02:08;;;;;;;9.55;4.95;;;;;;;-1.73;100.00;101367.94;4957778;29;20451;-70
2022/01/22 03:04:54;;;;;;;12.63;5.72;;;;;;;-1.52;100.00;101379.94;4945604;29;20095;-71
2022/01/22 03:07:41;;;;;;;7.93;5.10;;;;;;;-1.58;100.00;101365.97;4945012;28;20456;-72
2022/01/22 03:10:29;;;;;;;12.20;6.13;;;;;;;-1.78;100.00;101360.03;4958052;29;20101;-71
2022/01/22 03:14:00;;;;;;;10.10;4.90;;;;;;;-1.50;100.00;101364.59;4945039;29;20113;-72
2022/01/22 03:22:30;;;;;;;10.23;5.63;;;;;;;-1.51;100.00;101361.19;4937449;29;20050;-71
2022/01/22 03:28:28;;;;;;;9.48;5.00;;;;;;;-1.55;100.00;101358.41;4958505;29;20490;-71
2022/01/22 03:31:14;;;;;;;11.50;5.43;;;;;;;-1.58;100.00;101345.44;4958559;29;20393;-71
2022/01/22 03:34:00;;;;;;;8.98;4.70;;;;;;;-1.84;100.00;101346.91;4944041;29;20031;-71
2022/01/22 03:44:23;;;;;;;10.15;5.60;;;;;;;-1.24;100.00;101351.13;4937929;29;20111;-71
2022/01/22 03:47:09;;;;;;;9.15;5.32;;;;;;;-1.48;100.00;101347.56;4937942;29;20385;-72
2022/01/22 03:49:55;;;;;;;9.10;5.75;;;;;;;-1.40;100.00;101348.75;4939920;28;20027;-72
2022/01/22 03:52:41;;;;;;;9.65;5.45;;;;;;;-1.56;100.00;101352.38;4940216;28;20036;-72
2022/01/22 03:58:28;;;;;;;11.52;5.90;;;;;;;-1.93;100.00;101361.94;4938036;29;20024;-72
2022/01/22 04:04:23;;;;;;;10.02;5.85;;;;;;;-1.96;100.00;101351.56;4938201;29;20039;-71
2022/01/22 04:10:07;;;;;;;7.88;5.30;;;;;;;-1.86;100.00;101345.09;4937939;29;20483;-72
2022/01/22 04:24:51;;;;;;;12.07;6.35;;;;;;;-1.82;100.00;101336.72;4956918;29;20033;-72
2022/01/22 04:42:07;;;;;;;15.27;7.22;;;;;;;-1.80;100.00;101329.97;5187780;23;20111;-71
2022/01/22 04:44:59;;;;;;;11.82;6.70;;;;;;;-1.97;100.00;101324.13;4956530;29;20101;-71
2022/01/22 04:47:57;;;;;;;13.00;7.32;;;;;;;-2.14;100.00;101326.78;4938662;29;20114;-72
2022/01/22 04:57:17;;;;;;;15.52;7.25;;;;;;;-1.79;100.00;101331.72;5680970;23;21023;-72
2022/01/22 05:00:07;;;;;;;14.60;6.50;;;;;;;-1.91;100.00;101326.06;4955845;29;20074;-71
2022/01/22 05:02:53;;;;;;;12.70;6.32;;;;;;;-2.09;100.00;101335.59;4943174;29;20027;-72
2022/01/22 05:05:39;;;;;;;11.60;5.90;;;;;;;-2.00;100.00;101321.44;4942597;28;20131;-72
2022/01/22 05:08:25;;;;;;;13.98;6.80;;;;;;;-1.88;100.00;101319.38;4940724;29;20027;-71
2022/01/22 05:11:10;;;;;;;13.10;6.90;;;;;;;-1.73;100.00;101322.56;4955948;29;20087;-71
2022/01/22 05:14:00;;;;;;;14.20;7.72;;;;;;;-1.98;100.00;101318.91;4955437;29;20027;-72
2022/01/22 05:16:45;;;;;;;16.15;8.35;;;;;;;-1.92;100.00;101314.06;4955433;28;20043;-71
2022/01/22 05:25:16;;;;;;;12.80;6.90;;;;;;;-1.80;100.00;101319.69;4955839;29;20034;-72
2022/01/22 06:00:59;;;;;;;13.80;6.97;;;;;;;-1.60;100.00;101329.09;6047209;23;20060;31
2022/01/22 06:03:47;;;;;;;12.32;6.88;;;;;;;-1.85;100.00;101316.06;4897942;29;20422;-72
2022/01/22 06:06:32;;;;;;;13.73;6.88;;;;;;;-1.67;100.00;101319.38;4909237;29;20060;-72
2022/01/22 06:09:21;;;;;;;13.30;7.10;;;;;;;-1.63;100.00;101323.81;4903774;29;20170;-72
2022/01/22 06:14:53;;;;;;;14.30;7.00;;;;;;;-1.77;100.00;101318.13;4918630;29;20035;-73
2022/01/22 06:17:39;;;;;;;14.48;7.22;;;;;;;-1.57;100.00;101319.81;4917892;29;20035;-73
2022/01/22 06:20:25;;;;;;;13.60;7.30;;;;;;;-1.46;100.00;101328.81;4919521;29;20039;-71
2022/01/22 06:26:55;;;;;;;16.17;7.85;;;;;;;-1.43;100.00;101322.94;5174710;23;20051;-72
2022/01/22 06:29:41;;;;;;;16.38;8.93;;;;;;;-1.42;100.00;101325.56;4959951;29;20027;-72
2022/01/22 06:32:27;;;;;;;21.48;9.10;;;;;;;-1.41;100.00;101323.88;4946459;28;20031;-72
2022/01/22 06:35:13;;;;;;;15.88;8.30;;;;;;;-1.62;100.00;101325.56;4959777;29;20027;-72
2022/01/22 06:38:01;;;;;;;14.70;7.28;;;;;;;-1.45;100.00;101329.72;4926358;29;20365;-71
2022/01/22 06:43:51;;;;;;;18.30;7.65;;;;;;;-1.49;100.00;101325.28;4939092;29;20024;-72
2022/01/22 06:46:37;;;;;;;16.52;7.93;;;;;;;-1.76;100.00;101327.56;4941104;29;20027;-71
2022/01/22 06:49:23;;;;;;;14.23;7.80;;;;;;;-1.54;100.00;101325.06;4940125;29;20028;-71
2022/01/22 06:52:08;;;;;;;13.52;7.90;;;;;;;-1.48;100.00;101327.03;4940372;29;20032;-72
2022/01/22 06:54:54;;;;;;;17.00;8.90;;;;;;;-1.31;100.00;101333.69;4925379;29;20492;-72
2022/01/22 06:57:40;;;;;;;17.20;7.95;;;;;;;-1.39;100.00;101324.81;4939309;29;20163;-72
2022/01/22 07:00:26;;;;;;;16.63;7.68;;;;;;;-1.33;100.00;101318.22;4940225;29;20028;-71
2022/01/22 07:03:11;;;;;;;20.20;9.48;;;;;;;-1.42;100.00;101311.81;4940260;29;20032;-71
2022/01/22 07:05:57;;;;;;;17.17;9.57;;;;;;;-1.13;100.00;101311.25;4940682;29;20031;-73
2022/01/22 07:12:25;;;;;;;18.98;7.85;;;;;;;-1.09;100.00;101311.44;4938616;29;20454;-72
2022/01/22 07:15:10;;;;;;;19.50;9.60;;;;;;;-0.74;100.00;101305.94;4940467;29;20024;-72
2022/01/22 07:17:56;;;;;;;17.58;8.18;;;;;;;-0.89;100.00;101305.38;4939585;29;20031;-72
2022/01/22 07:20:43;;;;;;;15.32;8.75;;;;;;;-0.64;100.00;101302.00;4940025;29;20023;-72
2022/01/22 07:27:12;;;;;;;21.13;9.52;;;;;;;-0.58;100.00;101291.94;5196964;23;20063;-72
2022/01/22 07:29:58;;;;;;;18.70;9.57;;;;;;;-0.40;100.00;101297.75;4958205;29;20071;-73
2022/01/22 07:33:06;;;;;;;16.58;9.45;;;;;;;-0.12;100.00;101297.88;4944840;29;20069;-72
2022/01/22 07:35:55;;;;;;;20.42;9.00;;;;;;;-0.78;100.00;101303.19;4943849;28;20027;-72
2022/01/22 07:38:41;;;;;;;16.27;8.75;;;;;;;-0.28;100.00;101296.47;4957654;29;20038;-72
2022/01/22 07:41:27;;;;;;;18.90;10.07;;;;;;;-0.02;100.00;101300.81;4958825;28;20031;-72
2022/01/22 07:44:12;;;;;;;16.70;9.40;;;;;;;-0.03;100.00;101291.31;4958020;29;20034;-72
2022/01/22 07:46:58;;;;;;;20.42;9.88;;;;;;;0.33;100.00;101294.25;4958867;28;20414;-71
2022/01/22 07:49:44;;;;;;;18.02;8.85;;;;;;;0.67;100.00;101281.59;4957626;29;20097;-71
2022/01/22 07:52:30;;;;;;;15.50;7.72;;;;;;;0.73;100.00;101279.22;4958288;29;20054;-72
2022/01/22 07:55:18;;;;;;;13.32;7.05;;;;;;;0.58;100.00;101283.00;4957648;29;20023;-72
2022/01/22 07:58:43;;;;;;;;;;;;;;;;;;;;;
2022/01/22 08:01:29;;;;;;;13.38;7.20;;;;;;;1.41;100.00;101278.66;4958519;28;20118;-73
2022/01/22 08:04:18;;;;;;;14.00;6.95;;;;;;;1.41;100.00;101284.66;4957380;29;20062;-73
2022/01/22 08:07:05;;;;;;;14.98;7.05;;;;;;;1.28;100.00;101282.56;4956796;28;20035;-73
2022/01/22 08:09:51;;;;;;;13.60;6.40;;;;;;;1.71;100.00;101288.09;4957279;29;20043;-73
2022/01/22 08:12:37;;;;;;;10.82;6.10;;;;;;;2.00;100.00;101284.56;4958410;28;20039;-73
2022/01/22 08:15:23;;;;;;;13.60;6.50;;;;;;;2.17;100.00;101282.44;4957267;28;20034;-73
2022/01/22 08:18:09;;;;;;;11.77;6.20;;;;;;;2.42;100.00;101275.31;4956757;29;20023;-73
2022/01/22 08:20:55;;;;;;;13.68;6.78;;;;;;;2.42;100.00;101274.44;4958542;28;20039;-74
2022/01/22 08:23:40;;;;;;;13.18;6.38;;;;;;;3.00;100.00;101278.38;4957979;29;20027;-73
2022/01/22 08:26:31;;;;;;;9.48;5.60;;;;;;;2.85;100.00;101284.94;4956349;28;20059;-74
2022/01/22 08:29:17;;;;;;;14.50;6.22;;;;;;;3.00;100.00;101280.06;4956588;29;20023;-74
2022/01/22 08:32:10;;;;;;;12.13;6.43;;;;;;;2.18;100.00;101276.41;4957919;28;20023;-73
2022/01/22 08:38:00;;;;;;;14.88;7.20;;;;;;;2.34;100.00;101274.25;4957932;28;20102;-73
2022/01/22 08:40:49;;;;;;;17.13;7.25;;;;;;;2.30;100.00;101277.59;4956602;29;20035;-74
2022/01/22 08:43:35;;;;;;;14.05;7.07;;;;;;;2.04;100.00;101276.06;4941765;29;20027;-73
2022/01/22 08:46:21;;;;;;;19.67;7.35;;;;;;;2.59;100.00;101273.09;4956562;28;20034;-74
2022/01/22 08:49:08;;;;;;;14.48;6.60;;;;;;;3.02;100.00;101271.50;4956037;29;20066;-73
2022/01/22 08:51:54;;;;;;;10.63;6.40;;;;;;;2.64;100.00;101280.13;4956764;29;20030;-74
2022/01/22 08:54:41;;;;;;;14.65;6.50;;;;;;;3.09;100.00;101281.16;4956211;29;20113;-74
2022/01/22 08:57:27;;;;;;;11.93;6.75;;;;;;;3.10;100.00;101269.94;4956195;28;20109;-73
2022/01/22 09:00:13;;;;;;;18.35;7.07;;;;;;;2.94;100.00;101279.97;4955808;29;20337;-73
2022/01/22 09:02:59;;;;;;;13.38;6.68;;;;;;;2.90;100.00;101271.22;4956456;29;20026;-73
2022/01/22 09:05:47;;;;;;;13.23;7.13;;;;;;;2.85;100.00;101272.00;4956573;28;20035;-75
2022/01/22 09:08:33;;;;;;;17.65;7.05;;;;;;;2.97;100.00;101259.34;4956830;29;20372;-73
2022/01/22 09:11:19;;;;;;;12.70;6.45;;;;;;;2.65;100.00;101252.56;4942414;29;20045;-72
2022/01/22 09:14:08;;;;;;;18.80;7.22;;;;;;;2.53;100.00;101255.72;4955595;29;20031;-72
2022/01/22 09:16:54;;;;;;;12.40;6.18;;;;;;;2.99;100.00;101236.94;4956812;28;20046;-73
2022/01/22 09:19:39;;;;;;;13.32;6.95;;;;;;;3.46;100.00;101242.22;4956355;29;20028;-73
2022/01/22 09:22:25;;;;;;;13.52;6.22;;;;;;;3.53;100.00;101241.50;4942320;29;20035;-74
2022/01/22 09:25:15;;;;;;;12.07;6.40;;;;;;;3.27;100.00;101221.13;4942077;29;20054;-73
2022/01/22 09:28:01;;;;;;;12.82;6.60;;;;;;;3.13;100.00;101223.44;4956975;28;20377;-73
2022/01/22 09:30:47;;;;;;;13.85;6.65;;;;;;;3.06;100.00;101220.69;4941975;29;20038;-73
2022/01/22 09:33:33;;;;;;;14.45;6.72;;;;;;;3.06;100.00;101215.53;4955419;29;20043;-74
2022/01/22 09:36:19;;;;;;;19.00;10.00;;;;;;;3.20;100.00;101199.41;4941904;29;20047;-72
2022/01/22 09:39:08;;;;;;;12.45;6.78;;;;;;;3.34;100.00;101215.22;4957218;28;20377;-74
2022/01/22 09:41:54;;;;;;;17.63;9.00;;;;;;;3.09;100.00;101197.47;4955651;29;20456;-72
2022/01/22 09:44:41;;;;;;;20.67;7.40;;;;;;;2.99;100.00;101188.66;4955383;29;20463;-73
2022/01/22 09:47:27;;;;;;;18.02;6.90;;;;;;;2.66;100.00;101194.81;4955293;28;20039;-74
2022/01/22 09:50:16;;;;;;;12.00;6.80;;;;;;;2.65;100.00;101177.56;4941890;29;20035;-73
2022/01/22 09:53:03;;;;;;;14.05;7.60;;;;;;;3.50;99.67;101181.00;4955759;29;20118;-73
2022/01/22 09:55:50;;;;;;;15.52;7.60;;;;;;;3.26;98.73;101177.97;4955039;28;20404;-73
2022/01/22 09:58:36;;;;;;;11.80;6.68;;;;;;;3.06;100.00;101164.59;4955781;29;20027;-73
2022/01/22 10:01:33;;;;;;;14.68;7.25;;;;;;;3.00;99.80;101172.25;4941712;29;20409;-74
2022/01/22 10:04:34;;;;;;;14.52;6.30;;;;;;;2.98;97.16;101158.41;4956508;29;20035;-74
2022/01/22 10:07:24;;;;;;;17.40;6.47;;;;;;;3.37;96.38;101159.19;4941598;29;20023;-73
2022/01/22 10:13:44;;;;;;;13.32;6.97;;;;;;;3.00;96.42;101148.09;4895510;29;20131;-74
2022/01/22 10:16:32;;;;;;;15.70;8.20;;;;;;;3.44;97.07;101144.63;4925296;29;20039;-73
2022/01/22 10:19:21;;;;;;;12.82;7.10;;;;;;;3.93;93.91;101144.59;4942541;29;20481;-74
2022/01/22 10:22:07;;;;;;;13.65;6.85;;;;;;;3.71;90.79;101153.75;4941786;29;20035;-72
2022/01/22 10:24:58;;;;;;;13.85;7.15;;;;;;;3.81;89.58;101150.47;4955217;29;20121;-74
2022/01/22 10:27:48;;;;;;;10.20;6.50;;;;;;;3.39;89.86;101144.56;4955375;29;20130;-75
2022/01/22 10:30:36;;;;;;;9.20;6.07;;;;;;;3.75;89.41;101134.81;4956423;29;20065;-72
2022/01/22 10:33:30;;;;;;;10.50;5.97;;;;;;;3.82;88.03;101128.03;4955104;29;20031;-74
2022/01/22 10:36:21;;;;;;;15.55;6.47;;;;;;;3.75;87.40;101129.66;4954954;28;20059;-73
2022/01/22 10:39:21;;;;;;;11.48;5.60;;;;;;;3.72;84.47;101133.88;4956063;29;20094;-73
2022/01/22 10:42:22;;;;;;;10.70;5.85;;;;;;;4.12;82.44;101131.97;4955048;29;20031;-73
2022/01/22 10:45:18;;;;;;;8.98;5.30;;;;;;;3.79;82.58;101134.03;4941376;29;20037;-73
2022/01/22 10:48:21;;;;;;;10.13;5.85;;;;;;;3.94;81.85;101129.06;4954705;29;20478;-73
2022/01/22 10:51:14;;;;;;;11.70;6.60;;;;;;;4.13;80.75;101125.03;4943030;29;20027;-73
2022/01/22 10:54:02;;;;;;;13.85;6.25;;;;;;;4.27;79.64;101124.38;4955356;29;20034;-74
2022/01/22 10:56:48;;;;;;;13.40;6.10;;;;;;;4.86;78.09;101117.38;4955219;28;20023;-74
2022/01/22 10:59:34;;;;;;;12.10;6.10;;;;;;;4.75;75.33;101127.63;4955795;29;20331;-71
2022/01/22 11:02:33;;;;;;;12.05;6.50;;;;;;;4.89;73.25;101115.69;4955566;29;20384;-74
2022/01/22 11:05:37;;;;;;;10.35;5.85;;;;;;;5.11;71.93;101115.06;4955056;28;20113;-74
2022/01/22 11:08:23;;;;;;;10.80;5.82;;;;;;;5.15;69.24;101110.78;4958220;29;20039;-74
2022/01/22 11:11:09;;;;;;;10.20;5.85;;;;;;;4.22;70.41;101101.84;4958793;29;20031;-73
2022/01/22 11:13:55;;;;;;;12.48;6.00;;;;;;;4.50;70.20;101097.03;4959552;28;20038;-73
2022/01/22 11:16:44;;;;;;;11.75;6.18;;;;;;;4.81;69.65;101096.56;4958088;28;20042;-74
2022/01/22 11:19:32;;;;;;;15.82;6.80;;;;;;;4.47;70.83;101089.19;4957870;29;20401;-74
2022/01/22 11:22:19;;;;;;;12.55;6.47;;;;;;;4.19;72.67;101084.50;4945049;29;20035;-74
2022/01/22 11:25:07;;;;;;;13.05;6.47;;;;;;;4.38;72.07;101073.53;4958024;29;20024;-74
2022/01/22 11:27:53;;;;;;;11.70;6.65;;;;;;;4.69;71.09;101077.38;4943905;29;20101;-72
2022/01/22 11:30:43;;;;;;;10.80;6.35;;;;;;;4.40;70.86;101070.97;4944164;29;20353;-71
2022/01/22 11:33:37;;;;;;;12.07;6.50;;;;;;;4.57;70.38;101066.84;4959303;29;20031;-75
2022/01/22 11:36:37;;;;;;;11.27;6.00;;;;;;;5.26;70.39;101070.19;4957771;28;20039;-72
2022/01/22 11:39:25;;;;;;;14.15;6.63;;;;;;;5.25;68.09;101066.75;4958287;29;20046;-74
2022/01/22 11:42:15;;;;;;;12.13;6.25;;;;;;;4.79;69.02;101066.25;4945484;29;20024;-73
2022/01/22 11:45:46;;;;;;;10.40;5.68;;;;;;;5.10;65.91;101065.72;4946284;28;20053;-74
2022/01/22 11:48:37;;;;;;;13.18;5.70;;;;;;;5.73;66.09;101060.19;4943980;29;20050;-75
2022/01/22 11:51:26;;;;;;;11.75;6.55;;;;;;;5.24;64.92;101051.16;4958491;29;20031;-76
2022/01/22 11:54:13;;;;;;;9.43;5.57;;;;;;;5.30;65.28;101056.38;4958420;29;20444;-73
2022/01/22 11:56:58;;;;;;;11.25;6.43;;;;;;;4.68;66.24;101050.56;4957388;28;20058;-73
2022/01/22 11:59:46;;;;;;;10.68;6.28;;;;;;;4.98;67.13;101044.81;4957895;29;20042;-73
2022/01/22 12:02:32;;;;;;;14.13;6.22;;;;;;;5.00;66.03;101038.81;4943828;29;20106;-72
2022/01/22 12:05:18;;;;;;;9.70;5.57;;;;;;;4.64;62.81;101043.59;4957749;28;20109;-75
2022/01/22 12:08:03;;;;;;;11.15;5.18;;;;;;;4.89;60.72;101042.13;4956933;29;20027;-73
2022/01/22 12:16:55;;;;;;;8.75;4.82;;;;;;;5.47;58.03;101040.09;4959489;28;20035;-74
2022/01/22 12:20:39;;;;;;;10.82;5.30;;;;;;;5.40;57.42;101040.88;4957148;29;20035;-73
2022/01/22 12:22:53;;;;;;;10.05;4.88;;;;;;;5.08;56.88;101034.56;4958637;29;20031;-72
2022/01/22 12:25:38;;;;;;;8.40;4.93;;;;;;;5.08;56.80;101044.94;4956544;28;20050;-72
2022/01/22 12:29:10;;;;;;;8.75;4.75;;;;;;;5.19;55.84;101035.50;4957055;29;20440;-73
2022/01/22 12:32:32;;;;;;;7.78;4.97;;;;;;;5.60;55.42;101029.78;4957631;29;20038;-73
2022/01/22 12:35:45;;;;;;;7.78;4.50;;;;;;;5.54;54.93;101035.81;4955645;28;20436;-73
2022/01/22 12:42:32;;;;;;;8.65;4.55;;;;;;;5.11;53.06;101033.72;4940499;29;20069;-74
2022/01/22 12:45:20;;;;;;;8.93;4.72;;;;;;;5.07;51.81;101040.59;4956369;28;20536;-73
2022/01/22 12:48:06;;;;;;;9.02;3.83;;;;;;;4.36;50.67;101038.06;4943738;29;20035;-72
2022/01/22 12:50:52;;;;;;;7.40;4.15;;;;;;;4.57;51.21;101028.81;4956700;29;20038;-72
2022/01/22 12:53:41;;;;;;;12.07;3.92;;;;;;;4.71;51.51;101027.22;4956532;29;20071;-72
2022/01/22 12:59:20;;;;;;;10.32;4.45;;;;;;;4.15;53.64;101030.84;4956949;29;20078;-73
2022/01/22 13:02:06;;;;;;;7.10;4.10;;;;;;;4.02;52.88;101033.28;4957372;29;20033;-72
2022/01/22 13:04:59;;;;;;;7.90;4.13;;;;;;;4.02;52.77;101031.53;4956692;29;20062;-73
2022/01/22 13:07:53;;;;;;;9.57;4.47;;;;;;;4.02;52.92;101031.53;4943424;29;20034;-72
2022/01/22 13:10:44;;;;;;;10.77;5.05;;;;;;;3.86;53.63;101033.94;4942751;29;20479;-72
2022/01/22 13:13:31;;;;;;;8.13;5.50;;;;;;;3.99;54.26;101033.25;4943617;29;20311;-72
2022/01/22 13:16:17;;;;;;;9.90;5.78;;;;;;;4.62;53.36;101027.13;4942403;29;20031;-73
2022/01/22 13:19:03;;;;;;;9.93;6.07;;;;;;;4.19;54.00;101027.44;4943401;29;20026;-74
2022/01/22 13:25:31;;;;;;;18.45;10.18;;;;;;;3.84;55.90;101026.13;4957032;28;20035;-72
2022/01/22 13:28:17;;;;;;;10.95;6.10;;;;;;;4.10;55.71;101029.09;4955605;28;20047;-72
2022/01/22 13:31:15;;;;;;;16.52;6.20;;;;;;;4.46;55.42;101030.41;4955447;29;20412;-72
2022/01/22 13:34:14;;;;;;;11.32;5.97;;;;;;;4.50;55.50;101026.09;4956956;29;20045;-73
2022/01/22 13:49:59;;;;;;;12.95;5.93;;;;;;;4.86;54.55;101030.00;4942015;29;20047;-73
2022/01/22 13:52:45;;;;;;;11.15;5.60;;;;;;;4.79;54.78;101028.19;4955819;29;20453;-72
2022/01/22 13:58:17;;;;;;;11.90;5.68;;;;;;;4.94;53.59;101020.56;5887280;23;20025;-71
2022/01/22 14:01:27;;;;;;;16.23;7.35;;;;;;;4.50;53.48;101029.59;4955256;29;20421;-71
2022/01/22 14:04:14;;;;;;;16.27;6.93;;;;;;;4.92;52.85;101029.19;4955792;29;20031;-72
2022/01/22 14:07:00;;;;;;;15.88;7.55;;;;;;;5.10;51.82;101027.63;5253083;23;20443;-70
2022/01/22 14:10:06;;;;;;;13.77;6.70;;;;;;;4.52;52.02;101016.63;4955650;29;20422;-72
2022/01/22 14:12:58;;;;;;;11.00;6.28;;;;;;;4.91;51.91;101030.91;4954993;29;20031;-73
2022/01/22 14:15:45;;;;;;;12.43;6.70;;;;;;;4.88;51.14;101032.59;4955445;28;20070;-71
2022/01/22 14:18:39;;;;;;;12.35;6.13;;;;;;;4.71;51.34;101035.00;4954959;29;20115;-72
2022/01/22 14:21:26;;;;;;;13.85;6.82;;;;;;;4.70;51.28;101028.09;4955145;29;20023;-72
2022/01/22 14:24:11;;;;;;;14.93;6.63;;;;;;;4.82;50.72;101030.81;4955091;29;20035;-72
2022/01/22 14:26:57;;;;;;;18.80;8.13;;;;;;;4.23;51.75;101030.97;4955148;28;20026;-72
2022/01/22 14:29:43;;;;;;;15.98;8.65;;;;;;;4.46;51.65;101030.41;4941630;29;20415;-72
2022/01/22 14:32:30;;;;;;;17.25;9.13;;;;;;;4.35;51.66;101039.75;4954923;29;20035;-72
2022/01/22 14:35:20;;;;;;;19.90;9.77;;;;;;;4.36;52.01;101038.06;4955179;29;20437;-72
2022/01/22 14:38:33;;;;;;;20.63;9.63;;;;;;;4.65;51.59;101050.53;4954715;29;20071;-73
2022/01/22 14:44:32;;;;;;;15.60;7.53;;;;;;;4.26;51.44;101051.78;4960124;28;20027;-73
2022/01/22 14:47:27;;;;;;;18.45;8.60;;;;;;;4.35;51.10;101054.47;4958324;28;20042;-72
2022/01/22 14:50:13;;;;;;;18.00;8.55;;;;;;;4.02;51.85;101060.06;4958594;29;20207;-72
2022/01/22 14:53:01;;;;;;;14.48;8.02;;;;;;;3.96;51.39;101061.69;4959199;29;20131;-74
2022/01/22 14:55:49;;;;;;;16.65;8.30;;;;;;;4.12;51.88;101061.06;4958182;28;20043;-72
2022/01/22 14:58:36;;;;;;;16.17;8.00;;;;;;;4.18;52.00;101068.94;4944916;29;20029;-73
2022/01/22 15:01:22;;;;;;;13.10;6.97;;;;;;;4.40;51.84;101065.78;4958059;29;20039;-73
2022/01/22 15:04:08;;;;;;;14.00;7.63;;;;;;;4.37;51.29;101070.91;4946112;29;20053;-72
2022/01/22 15:07:08;;;;;;;18.40;7.85;;;;;;;4.22;52.22;101076.78;4937736;29;20052;-73
2022/01/22 15:09:55;;;;;;;13.32;8.07;;;;;;;4.14;52.89;101075.78;4924338;29;20039;-71
2022/01/22 15:12:41;;;;;;;15.27;8.20;;;;;;;4.28;52.30;101082.06;4926400;29;20024;-71
2022/01/22 15:15:34;;;;;;;9.48;5.82;;;;;;;3.88;52.81;101081.44;4925996;29;20027;-72
2022/01/22 15:18:50;;;;;;;33.58;14.88;;;;;;;3.96;52.75;101082.44;4925998;29;20441;-72
2022/01/22 15:21:31;;;;;;;12.85;6.82;;;;;;;3.74;53.35;101088.16;4939892;29;20031;-72
2022/01/22 15:24:18;;;;;;;14.57;6.57;;;;;;;3.86;53.43;101089.19;4938872;29;20027;-72
2022/01/22 15:27:06;;;;;;;14.65;7.45;;;;;;;4.11;52.57;101093.03;4939167;29;20426;-71
2022/01/22 15:30:10;;;;;;;12.10;6.65;;;;;;;3.83;53.07;101096.94;4939776;29;20087;-73
2022/01/22 15:33:01;;;;;;;16.10;6.97;;;;;;;3.75;53.28;101103.72;4940704;29;20039;-71
2022/01/22 15:35:47;;;;;;;20.65;9.60;;;;;;;3.66;53.72;101097.53;4939802;29;20027;-72
2022/01/22 16:00:22;;;;;;;24.17;11.75;;;;;;;3.67;53.05;101133.81;5755131;23;20059;-73
2022/01/22 16:03:09;;;;;;;32.90;14.80;;;;;;;3.48;53.82;101138.66;4958974;28;20364;-73
2022/01/22 16:05:57;;;;;;;32.50;15.85;;;;;;;3.60;53.11;101139.75;4944853;28;20042;-72
2022/01/22 16:08:42;;;;;;;24.60;13.68;;;;;;;3.96;52.59;101149.84;4957878;29;20035;-73
2022/01/22 16:11:28;;;;;;;28.33;14.55;;;;;;;3.95;52.31;101156.72;4957074;29;20114;-73
2022/01/22 16:14:15;;;;;;;21.42;12.05;;;;;;;3.95;51.69;101154.13;4957977;29;20027;-73
2022/01/22 16:17:01;;;;;;;28.77;16.25;;;;;;;3.85;51.38;101157.44;4944368;29;20158;-72
2022/01/22 16:19:51;;;;;;;33.00;17.58;;;;;;;3.63;52.05;101155.34;4943513;29;20023;-73
2022/01/22 16:22:37;;;;;;;29.88;14.65;;;;;;;3.63;52.55;101168.31;4943995;29;20023;-73
2022/01/22 16:25:23;;;;;;;23.55;11.90;;;;;;;3.86;51.06;101166.09;4958267;28;20110;-73
2022/01/22 16:28:10;;;;;;;22.60;11.48;;;;;;;3.83;51.21;101172.09;4956725;29;20023;-73
2022/01/22 16:30:56;;;;;;;15.48;9.80;;;;;;;3.64;50.37;101175.22;4957509;29;20460;-74
2022/01/22 16:33:43;;;;;;;30.02;16.27;;;;;;;3.51;51.86;101185.34;4958117;29;20087;-73
2022/01/22 16:36:28;;;;;;;19.83;9.98;;;;;;;3.36;51.00;101192.81;4957423;28;20114;-72
2022/01/22 16:39:14;;;;;;;22.67;9.95;;;;;;;3.60;51.41;101190.66;4930495;29;20039;-72
2022/01/22 16:42:04;;;;;;;21.80;10.18;;;;;;;3.39;52.12;101190.28;4956519;29;20028;-73
2022/01/22 16:54:36;;;;;;;28.05;11.23;;;;;;;3.59;53.65;101212.25;4957077;29;20354;-73
2022/01/22 17:28:38;;;;;;;11.57;6.43;;;;;;;4.06;51.36;101243.31;5153385;23;20071;-73
2022/01/22 17:31:24;;;;;;;15.43;6.82;;;;;;;3.96;51.17;101249.22;4955994;29;20465;-73
2022/01/22 17:34:11;;;;;;;14.90;8.43;;;;;;;4.13;51.45;101252.06;4942517;29;20070;-74
2022/01/22 17:36:57;;;;;;;16.30;8.25;;;;;;;3.67;53.23;101265.06;4942628;29;20054;-73
2022/01/22 17:39:43;;;;;;;14.10;7.75;;;;;;;4.03;52.66;101263.16;4956446;29;20020;-73
2022/01/22 17:42:32;;;;;;;12.93;7.45;;;;;;;3.93;53.01;101267.28;4955622;29;20519;-72
2022/01/22 17:45:20;;;;;;;14.60;7.88;;;;;;;3.74;52.16;101272.13;4956525;28;20408;-72
2022/01/22 17:48:06;;;;;;;16.70;8.32;;;;;;;3.61;52.91;101273.59;4941637;29;20027;-73
2022/01/22 17:50:51;;;;;;;15.30;7.80;;;;;;;3.51;53.83;101279.47;4955573;29;20042;-73
2022/01/22 17:53:37;;;;;;;15.02;8.05;;;;;;;3.56;54.11;101271.75;4956294;29;20452;-72
2022/01/22 17:56:24;;;;;;;15.95;9.05;;;;;;;3.55;55.61;101275.19;4955292;28;20034;-72
2022/01/22 17:59:10;;;;;;;18.30;9.20;;;;;;;3.70;55.08;101286.72;4956015;29;20090;-74
2022/01/22 18:01:56;;;;;;;16.77;9.13;;;;;;;3.66;55.09;101289.25;4954863;29;20035;-73
2022/01/22 18:04:43;;;;;;;17.70;9.27;;;;;;;3.23;56.09;101290.09;4942250;29;20178;-73
2022/01/22 18:07:29;;;;;;;16.77;8.52;;;;;;;3.56;55.83;101287.31;4955222;28;20105;-73
2022/01/22 18:10:15;;;;;;;18.95;10.13;;;;;;;3.69;55.71;101294.47;4942142;29;20035;-72
2022/01/22 18:13:01;;;;;;;14.70;8.07;;;;;;;3.44;55.08;101306.06;4956636;28;20047;-74
2022/01/22 18:15:49;;;;;;;16.25;7.82;;;;;;;3.59;55.11;101293.44;4959167;28;20100;-73
2022/01/22 18:18:37;;;;;;;16.45;8.60;;;;;;;3.54;55.44;101301.97;4958839;29;20023;-73
2022/01/22 18:21:23;;;;;;;15.45;8.13;;;;;;;3.44;55.74;101305.19;4959214;29;20035;-73
2022/01/22 18:24:10;;;;;;;20.55;9.35;;;;;;;3.28;56.41;101313.47;4959361;29;20031;-73
2022/01/22 18:26:56;;;;;;;18.38;8.88;;;;;;;3.17;56.83;101320.16;4958994;28;20130;-73
2022/01/22 19:42:01;;;;;;;35.88;16.17;;;;;;;2.17;63.31;101412.50;4937538;29;20055;-73
2022/01/22 19:44:54;;;;;;;35.72;16.55;;;;;;;2.11;63.08;101412.38;4938583;29;20043;-75
2022/01/22 19:47:40;;;;;;;22.92;12.55;;;;;;;1.90;63.65;101421.22;4938619;29;20027;-72
2022/01/22 19:50:26;;;;;;;24.80;13.60;;;;;;;1.96;63.64;101427.44;4939975;28;20032;-74
2022/01/22 19:53:13;;;;;;;25.98;13.70;;;;;;;2.27;63.82;101431.72;4933863;29;20441;-74
2022/01/22 19:55:59;;;;;;;24.10;12.50;;;;;;;2.28;64.11;101436.06;4938146;29;20071;-73
2022/01/22 19:58:45;;;;;;;25.77;13.20;;;;;;;1.91;65.79;101433.28;4932787;28;20028;-73
2022/01/22 20:01:32;;;;;;;22.08;12.60;;;;;;;1.75;66.92;101438.84;4938525;29;20019;-72
2022/01/22 20:04:18;;;;;;;20.17;12.45;;;;;;;1.66;68.74;101442.06;4940598;28;20038;-73
2022/01/22 20:07:04;;;;;;;24.23;13.20;;;;;;;1.81;68.70;101445.06;4940124;28;20417;-72
2022/01/22 20:09:50;;;;;;;23.95;13.27;;;;;;;2.10;68.08;101448.50;4939171;29;20438;-73
2022/01/22 20:12:35;;;;;;;22.30;13.05;;;;;;;2.06;67.02;101454.41;4939315;29;20027;-74
2022/01/22 20:15:24;;;;;;;26.80;14.75;;;;;;;1.91;67.56;101453.97;4940402;28;20107;-74
2022/01/22 20:18:10;;;;;;;31.75;18.45;;;;;;;1.46;69.17;101462.94;4938946;29;20397;-72
2022/01/22 20:20:57;;;;;;;29.05;15.70;;;;;;;1.69;70.28;101462.78;4939553;29;20036;-72
2022/01/22 20:23:43;;;;;;;27.20;15.13;;;;;;;1.65;70.67;101462.69;4922587;29;20422;-73
2022/01/22 20:26:29;;;;;;;24.90;14.25;;;;;;;2.10;68.51;101461.41;4939262;29;20028;-74